Terminal Aerodrome Forecast
Issued by NWS Springfield, MO

Home | Current Version | Previous Version | Text Only | Print | Product List | Glossary On
Versions: 1 2 3 4 5 6 7 8 9 10 11 12 13 14 15 16 17 18 19 20 21 22 23 24 25 26 27 28 29
000
FTUS43 KSGF 252300
TAFSGF
TAF
KSGF 252320Z 2600/2624 16012KT P6SM SCT030 BKN050
     FM260200 15013KT P6SM -SHRA VCTS SCT020 BKN035CB
      TEMPO 2602/2605 5SM -TSRA BR OVC020CB
     FM260600 18008KT P6SM VCSH OVC008
      TEMPO 2606/2609 4SM -SHRA BR
     FM261200 23007KT P6SM BKN010
     FM261500 24011KT P6SM SCT250=

USA.gov is the U.S. government's official web portal to all federal, state and local government web resources and services.